createdAt,value
2019-05-12T00:00:39.222Z,12.70
2019-05-12T00:01:38.921Z,12.61
2019-05-12T00:02:39.711Z,12.65
2019-05-12T00:03:38.133Z,12.75
2019-05-12T00:04:38.571Z,12.58
2019-05-12T00:05:38.391Z,12.65
2019-05-12T00:06:38.735Z,12.68
2019-05-12T00:07:38.418Z,12.55
2019-05-12T00:08:38.254Z,12.73
2019-05-12T00:09:38.827Z,12.61
2019-05-12T00:10:38.762Z,12.69
2019-05-12T00:11:38.172Z,12.61
2019-05-12T00:12:38.674Z,12.58
2019-05-12T00:13:38.619Z,12.53
2019-05-12T00:14:38.262Z,12.58
2019-05-12T00:15:38.625Z,12.57
2019-05-12T00:16:38.582Z,12.55
2019-05-12T00:17:38.829Z,12.68
2019-05-12T00:18:38.196Z,12.63
2019-05-12T00:19:38.208Z,12.69
2019-05-12T00:20:38.754Z,12.70
2019-05-12T00:21:39.952Z,12.84
2019-05-12T00:22:38.224Z,12.62
2019-05-12T00:23:38.271Z,12.73
2019-05-12T00:24:38.398Z,12.72
2019-05-12T00:25:38.762Z,12.70
2019-05-12T00:26:38.378Z,12.58
2019-05-12T00:27:38.742Z,12.61
2019-05-12T00:28:38.261Z,12.62
2019-05-12T00:29:38.272Z,12.57
2019-05-12T00:30:39.008Z,12.50
2019-05-12T00:31:38.355Z,12.51
2019-05-12T00:32:38.669Z,12.37
2019-05-12T00:33:38.581Z,12.37
2019-05-12T00:34:38.571Z,12.53
2019-05-12T00:35:38.344Z,12.43
2019-05-12T00:36:38.375Z,12.45
2019-05-12T00:37:38.379Z,12.40
2019-05-12T00:38:38.335Z,12.40
2019-05-12T00:39:38.341Z,12.40
2019-05-12T00:40:39.256Z,12.36
2019-05-12T00:41:38.921Z,12.39
2019-05-12T00:42:38.394Z,12.26
2019-05-12T00:43:38.362Z,12.36
2019-05-12T00:44:39.078Z,12.29
2019-05-12T00:45:38.809Z,12.23
2019-05-12T00:46:38.639Z,12.29
2019-05-12T00:47:39.028Z,12.37
2019-05-12T00:48:38.378Z,12.29
2019-05-12T00:49:38.414Z,12.29
2019-05-12T00:50:38.618Z,12.32
2019-05-12T00:51:38.605Z,12.35
2019-05-12T00:52:38.741Z,12.26
2019-05-12T00:53:43.189Z,12.32
2019-05-12T00:54:38.420Z,12.21
2019-05-12T00:55:38.598Z,12.23
2019-05-12T00:56:39.213Z,12.20
2019-05-12T00:57:38.475Z,12.23
2019-05-12T00:58:38.445Z,12.28
2019-05-12T00:59:38.472Z,12.20
2019-05-12T01:00:40.631Z,12.21
2019-05-12T01:01:38.476Z,12.15
2019-05-12T01:02:38.485Z,12.10
2019-05-12T01:03:38.497Z,12.14
2019-05-12T01:04:38.538Z,12.17
2019-05-12T01:05:38.773Z,12.23
2019-05-12T01:06:38.818Z,12.07
2019-05-12T01:07:38.514Z,12.07
2019-05-12T01:08:38.506Z,12.15
2019-05-12T01:09:38.642Z,12.18
2019-05-12T01:10:39.181Z,12.20
2019-05-12T01:11:38.552Z,12.14
2019-05-12T01:12:38.515Z,12.14
2019-05-12T01:13:38.557Z,12.18
2019-05-12T01:14:38.553Z,12.14
2019-05-12T01:15:38.538Z,12.20
2019-05-12T01:16:38.824Z,12.15
2019-05-12T01:17:40.533Z,12.07
2019-05-12T01:18:38.569Z,12.11
2019-05-12T01:19:40.522Z,12.21
2019-05-12T01:20:39.195Z,12.15
2019-05-12T01:21:38.568Z,12.17
2019-05-12T01:22:38.576Z,12.08
2019-05-12T01:23:53.457Z,12.20
2019-05-12T01:24:38.665Z,12.02
2019-05-12T01:25:39.708Z,12.12
2019-05-12T01:26:38.975Z,12.10
2019-05-12T01:27:38.610Z,12.05
2019-05-12T01:28:38.611Z,12.07
2019-05-12T01:29:38.669Z,12.02
2019-05-12T01:30:39.285Z,12.08
2019-05-12T01:31:38.633Z,12.03
2019-05-12T01:32:38.645Z,12.12
2019-05-12T01:33:38.651Z,12.10
2019-05-12T01:34:38.654Z,12.05
2019-05-12T01:35:39.209Z,12.08
2019-05-12T01:36:38.686Z,12.05
2019-05-12T01:37:38.673Z,11.97
2019-05-12T01:38:38.685Z,12.14
2019-05-12T01:39:38.693Z,12.12
2019-05-12T01:40:39.706Z,12.07
2019-05-12T01:41:38.961Z,12.11
2019-05-12T01:42:38.697Z,12.10
2019-05-12T01:43:38.721Z,12.08
2019-05-12T01:44:38.715Z,12.12
2019-05-12T01:45:38.736Z,12.03
2019-05-12T01:46:38.773Z,12.02
2019-05-12T01:47:38.740Z,12.02
2019-05-12T01:48:38.742Z,12.05
2019-05-12T01:49:38.746Z,12.02
2019-05-12T01:50:39.102Z,12.03
2019-05-12T01:51:38.798Z,12.11
2019-05-12T01:52:38.879Z,12.11
2019-05-12T01:53:38.783Z,12.12
2019-05-12T01:54:38.759Z,12.14
2019-05-12T01:55:39.218Z,12.05
2019-05-12T01:56:38.788Z,12.12
2019-05-12T01:57:38.875Z,12.07
2019-05-12T01:58:38.801Z,11.97
2019-05-12T01:59:38.800Z,12.03
2019-05-12T02:00:39.376Z,12.12
2019-05-12T02:01:39.133Z,12.05
2019-05-12T02:02:38.841Z,12.05
2019-05-12T02:03:38.841Z,12.00
2019-05-12T02:04:38.817Z,12.02
2019-05-12T02:05:38.835Z,11.96
2019-05-12T02:06:38.924Z,11.93
2019-05-12T02:07:38.839Z,12.05
2019-05-12T02:08:38.891Z,11.95
2019-05-12T02:09:38.870Z,12.03
2019-05-12T02:10:39.118Z,12.03
2019-05-12T02:11:38.869Z,12.02
2019-05-12T02:12:38.869Z,12.11
2019-05-12T02:13:38.880Z,12.02
2019-05-12T02:14:38.940Z,12.11
2019-05-12T02:15:38.886Z,12.00
2019-05-12T02:16:38.976Z,12.12
2019-05-12T02:17:39.284Z,11.96
2019-05-12T02:18:38.904Z,11.97
2019-05-12T02:19:38.925Z,11.91
2019-05-12T02:20:38.929Z,11.86
2019-05-12T02:21:38.931Z,11.91
2019-05-12T02:22:39.014Z,11.99
2019-05-12T02:23:38.948Z,11.93
2019-05-12T02:24:39.155Z,11.93
2019-05-12T02:25:39.001Z,12.00
2019-05-12T02:26:38.951Z,12.05
2019-05-12T02:27:38.966Z,11.91
2019-05-12T02:28:39.569Z,11.97
2019-05-12T02:29:38.992Z,11.95
2019-05-12T02:30:41.434Z,11.83
2019-05-12T02:31:39.969Z,11.85
2019-05-12T02:32:48.648Z,11.88
2019-05-12T02:33:39.037Z,11.93
2019-05-12T02:34:39.022Z,11.89
2019-05-12T02:35:39.010Z,11.86
2019-05-12T02:36:39.022Z,11.88
2019-05-12T02:37:39.017Z,11.95
2019-05-12T02:38:39.027Z,11.74
2019-05-12T02:39:39.058Z,11.81
2019-05-12T02:40:39.059Z,11.91
2019-05-12T02:41:39.061Z,11.91
2019-05-12T02:42:39.050Z,11.77
2019-05-12T02:43:39.068Z,11.78
2019-05-12T02:44:39.089Z,11.85
2019-05-12T02:45:39.106Z,11.77
2019-05-12T02:46:39.080Z,11.80
2019-05-12T02:47:39.197Z,11.74
2019-05-12T02:48:39.096Z,11.78
2019-05-12T02:49:39.109Z,11.78
2019-05-12T02:50:39.091Z,11.78
2019-05-12T02:51:39.123Z,11.74
2019-05-12T02:52:39.110Z,11.80
2019-05-12T02:53:39.107Z,11.74
2019-05-12T02:54:51.806Z,11.77
2019-05-12T02:55:39.111Z,11.76
2019-05-12T02:56:39.154Z,11.85
2019-05-12T02:57:39.122Z,11.74
2019-05-12T02:58:39.148Z,11.73
2019-05-12T02:59:39.149Z,11.68
2019-05-12T03:00:39.145Z,11.74
2019-05-12T03:01:39.190Z,11.77
2019-05-12T03:02:39.163Z,11.77
2019-05-12T03:03:39.177Z,11.67
2019-05-12T03:04:39.165Z,11.65
2019-05-12T03:05:39.186Z,11.81
2019-05-12T03:06:39.194Z,11.71
2019-05-12T03:07:39.234Z,11.68
2019-05-12T03:08:39.219Z,11.65
2019-05-12T03:09:39.193Z,11.63
2019-05-12T03:10:39.206Z,11.76
2019-05-12T03:11:39.309Z,11.80
2019-05-12T03:12:39.229Z,11.80
2019-05-12T03:13:39.226Z,11.81
2019-05-12T03:14:40.896Z,11.80
2019-05-12T03:15:39.225Z,11.74
2019-05-12T03:16:39.234Z,11.65
2019-05-12T03:17:39.305Z,11.68
2019-05-12T03:18:39.253Z,11.73
2019-05-12T03:19:39.275Z,11.74
2019-05-12T03:20:39.311Z,11.65
2019-05-12T03:21:39.269Z,11.71
2019-05-12T03:22:39.276Z,11.71
2019-05-12T03:23:39.294Z,11.67
2019-05-12T03:24:39.276Z,11.67
2019-05-12T03:25:39.282Z,11.62
2019-05-12T03:26:39.290Z,11.70
2019-05-12T03:27:39.296Z,11.65
2019-05-12T03:28:39.329Z,11.49
2019-05-12T03:29:39.314Z,11.53
2019-05-12T03:30:41.030Z,11.51
2019-05-12T03:31:40.957Z,11.51
2019-05-12T03:32:39.340Z,11.58
2019-05-12T03:33:43.659Z,11.35
2019-05-12T03:34:39.383Z,11.48
2019-05-12T03:35:43.888Z,11.48
2019-05-12T03:36:42.646Z,11.52
2019-05-12T03:37:39.359Z,11.52
2019-05-12T03:38:39.423Z,11.52
2019-05-12T03:39:39.415Z,11.55
2019-05-12T03:40:39.373Z,11.45
2019-05-12T03:41:39.381Z,11.45
2019-05-12T03:42:39.396Z,11.53
2019-05-12T03:43:39.391Z,11.56
2019-05-12T03:44:39.389Z,11.53
2019-05-12T03:45:39.435Z,11.56
2019-05-12T03:46:39.523Z,11.53
2019-05-12T03:47:39.412Z,11.56
2019-05-12T03:48:39.419Z,11.41
2019-05-12T03:49:39.417Z,11.44
2019-05-12T03:50:39.422Z,11.52
2019-05-12T03:51:39.433Z,11.53
2019-05-12T03:52:39.458Z,11.53
2019-05-12T03:53:39.455Z,11.43
2019-05-12T03:54:39.500Z,11.55
2019-05-12T03:55:42.419Z,11.49
2019-05-12T03:56:39.461Z,11.58
2019-05-12T03:57:39.480Z,11.49
2019-05-12T03:58:39.471Z,11.49
2019-05-12T03:59:39.506Z,11.48
2019-05-12T04:00:39.539Z,11.49
2019-05-12T04:01:39.501Z,11.55
2019-05-12T04:02:39.517Z,11.52
2019-05-12T04:03:39.517Z,11.51
2019-05-12T04:04:39.493Z,11.41
2019-05-12T04:05:39.495Z,11.37
2019-05-12T04:06:39.546Z,11.40
2019-05-12T04:07:39.543Z,11.53
2019-05-12T04:08:39.538Z,11.43
2019-05-12T04:09:39.541Z,11.49
2019-05-12T04:10:39.565Z,11.59
2019-05-12T04:11:39.634Z,11.56
2019-05-12T04:12:39.566Z,11.58
2019-05-12T04:13:39.580Z,11.56
2019-05-12T04:14:39.553Z,11.65
2019-05-12T04:15:39.561Z,11.67
2019-05-12T04:16:39.597Z,11.55
2019-05-12T04:17:39.574Z,11.58
2019-05-12T04:18:39.583Z,11.53
2019-05-12T04:19:39.586Z,11.56
2019-05-12T04:20:39.594Z,11.51
2019-05-12T04:21:39.731Z,11.55
2019-05-12T04:22:39.617Z,11.59
2019-05-12T04:23:39.617Z,11.68
2019-05-12T04:24:39.622Z,11.77
2019-05-12T04:25:52.621Z,11.74
2019-05-12T04:26:39.643Z,11.73
2019-05-12T04:27:39.639Z,11.71
2019-05-12T10:01:08.307Z,14.62
2019-05-12T10:02:10.527Z,14.55
2019-05-12T10:03:08.778Z,14.56
2019-05-12T10:04:10.380Z,14.61
2019-05-12T10:05:08.319Z,14.61
2019-05-12T10:06:11.350Z,14.59
2019-05-12T10:07:08.313Z,14.70
2019-05-12T10:08:08.320Z,14.71
2019-05-12T10:09:13.708Z,14.66
2019-05-12T10:10:08.353Z,14.62
2019-05-12T10:11:10.183Z,14.67
2019-05-12T10:12:08.357Z,14.62
2019-05-12T10:13:08.414Z,14.68
2019-05-12T10:14:10.818Z,14.52
2019-05-12T10:15:08.532Z,14.66
2019-05-12T10:16:08.900Z,14.62
2019-05-12T10:17:08.388Z,14.70
2019-05-12T10:18:11.186Z,14.68
2019-05-12T10:19:08.451Z,14.77
2019-05-12T10:20:08.412Z,14.77
2019-05-12T10:21:10.070Z,14.71
2019-05-12T10:22:08.442Z,14.61
2019-05-12T10:23:10.322Z,14.66
2019-05-12T10:24:08.441Z,14.66
2019-05-12T10:25:08.758Z,14.63
2019-05-12T10:26:11.595Z,14.67
2019-05-12T10:27:08.475Z,14.71
2019-05-12T10:28:13.132Z,14.67
2019-05-12T10:29:19.606Z,14.74
2019-05-12T10:30:12.302Z,14.67
2019-05-12T10:31:08.461Z,14.67
2019-05-12T10:32:10.359Z,14.71
2019-05-12T10:33:08.476Z,14.68
2019-05-12T10:34:08.608Z,14.70
2019-05-12T10:35:12.514Z,14.73
2019-05-12T10:36:08.699Z,14.66
2019-05-12T10:37:08.538Z,14.73
2019-05-12T10:38:10.683Z,14.78
2019-05-12T10:39:08.701Z,14.81
2019-05-12T10:40:08.527Z,14.87
2019-05-12T10:41:08.530Z,14.89
2019-05-12T10:42:08.608Z,14.90
2019-05-12T10:43:08.559Z,14.87
2019-05-12T10:44:08.598Z,14.96
2019-05-12T10:45:10.715Z,14.90
2019-05-12T10:46:08.626Z,15.04
2019-05-12T10:47:08.583Z,15.10
2019-05-12T10:48:08.842Z,14.99
2019-05-12T10:49:08.588Z,15.07
2019-05-12T10:50:08.601Z,15.05
2019-05-12T10:51:08.619Z,15.05
2019-05-12T10:52:08.641Z,15.00
2019-05-12T10:53:09.846Z,15.00
2019-05-12T10:54:13.101Z,14.99
2019-05-12T10:55:08.660Z,15.05
2019-05-12T10:56:08.652Z,15.07
2019-05-12T10:57:08.647Z,15.02
2019-05-12T10:58:08.665Z,15.05
2019-05-12T10:59:08.707Z,15.05
2019-05-12T11:00:08.702Z,15.08
2019-05-12T11:01:08.773Z,15.14
2019-05-12T11:02:08.710Z,15.00
2019-05-12T11:03:12.239Z,14.97
2019-05-12T11:04:08.731Z,14.97
2019-05-12T11:05:12.587Z,15.11
2019-05-12T11:06:08.734Z,15.10
2019-05-12T11:07:08.721Z,15.18
2019-05-12T11:08:10.955Z,15.14
2019-05-12T11:09:08.766Z,15.22
2019-05-12T11:10:15.308Z,15.19
2019-05-12T11:11:08.752Z,15.25
2019-05-12T11:12:08.767Z,15.35
2019-05-12T11:13:10.036Z,15.37
2019-05-12T11:14:08.889Z,15.29
2019-05-12T11:15:08.805Z,15.41
2019-05-12T11:16:08.795Z,15.41
2019-05-12T11:17:09.548Z,15.37
2019-05-12T11:18:08.867Z,15.47
2019-05-12T11:19:10.519Z,15.43
2019-05-12T11:20:08.841Z,15.44
2019-05-12T11:21:08.866Z,15.48
2019-05-12T11:22:08.912Z,15.50
2019-05-12T11:23:08.848Z,15.48
2019-05-12T11:24:08.935Z,15.44
2019-05-12T11:25:08.888Z,15.50
2019-05-12T11:26:08.874Z,15.45
2019-05-12T11:27:09.016Z,15.45
2019-05-12T11:28:08.876Z,15.51
2019-05-12T11:29:08.899Z,15.47
2019-05-12T11:30:08.974Z,15.57
2019-05-12T11:31:08.907Z,15.47
2019-05-12T11:32:08.922Z,15.48
2019-05-12T11:33:08.921Z,15.52
2019-05-12T11:34:08.926Z,15.50
2019-05-12T11:35:08.921Z,15.52
2019-05-12T11:36:08.966Z,15.59
2019-05-12T11:37:08.953Z,15.69
2019-05-12T11:38:08.952Z,15.67
2019-05-12T11:39:08.961Z,15.67
2019-05-12T11:40:09.022Z,15.81
2019-05-12T11:41:10.005Z,15.78
2019-05-12T11:42:08.981Z,15.73
2019-05-12T11:43:09.120Z,15.80
2019-05-12T11:44:09.001Z,15.76
2019-05-12T11:45:09.010Z,15.90
2019-05-12T11:46:09.048Z,15.85
2019-05-12T11:47:14.067Z,15.85
2019-05-12T11:48:10.397Z,15.80
2019-05-12T11:49:09.675Z,15.84
2019-05-12T11:50:10.062Z,15.85
2019-05-12T11:51:09.064Z,15.78
2019-05-12T11:52:13.361Z,15.83
2019-05-12T11:53:09.089Z,15.81
2019-05-12T11:54:10.670Z,15.72
2019-05-12T11:55:09.112Z,15.72
2019-05-12T11:56:09.348Z,15.78
2019-05-12T11:57:09.123Z,15.83
2019-05-12T11:58:11.366Z,15.76
2019-05-12T11:59:09.126Z,15.83
2019-05-12T12:00:09.120Z,15.76
2019-05-12T12:01:09.183Z,15.85
2019-05-12T12:02:09.562Z,15.83
2019-05-12T12:03:13.375Z,15.90
2019-05-12T12:04:09.144Z,15.81
2019-05-12T12:05:09.176Z,15.87
2019-05-12T12:06:09.164Z,15.88
2019-05-12T12:07:09.188Z,15.84
2019-05-12T12:08:09.246Z,15.88
2019-05-12T12:09:14.456Z,15.83
2019-05-12T12:10:09.216Z,15.76
2019-05-12T12:11:10.447Z,15.85
2019-05-12T12:12:09.246Z,15.84
2019-05-12T12:13:09.264Z,15.88
2019-05-12T12:14:10.673Z,15.90
2019-05-12T12:15:09.288Z,15.88
2019-05-12T12:16:11.237Z,15.83
2019-05-12T12:17:09.306Z,15.83
2019-05-12T12:18:13.734Z,15.83
2019-05-12T12:19:09.285Z,15.91
2019-05-12T12:20:14.047Z,15.87
2019-05-12T12:21:09.283Z,15.90
2019-05-12T12:22:09.345Z,15.90
2019-05-12T12:23:11.261Z,15.90
2019-05-12T12:24:09.348Z,15.85
2019-05-12T12:25:11.041Z,15.96
2019-05-12T12:26:09.317Z,15.90
2019-05-12T12:27:09.339Z,15.96
2019-05-12T12:28:09.365Z,15.98
2019-05-12T12:29:09.343Z,16.00
2019-05-12T12:30:18.574Z,16.00
2019-05-12T12:31:09.388Z,15.99
2019-05-12T12:32:09.968Z,16.02
2019-05-12T12:33:09.410Z,15.96
2019-05-12T12:34:09.371Z,15.96
2019-05-12T12:35:12.965Z,15.98
2019-05-12T12:36:09.408Z,16.00
2019-05-12T12:37:09.406Z,16.02
2019-05-12T12:38:09.442Z,16.12
2019-05-12T12:39:09.433Z,16.09
2019-05-12T12:40:09.466Z,16.16
2019-05-12T12:41:09.464Z,16.18
2019-05-12T12:42:09.434Z,16.08
2019-05-12T12:43:09.454Z,16.16
2019-05-12T12:44:09.471Z,16.17
2019-05-12T12:45:09.480Z,16.17
2019-05-12T12:46:10.724Z,16.09
2019-05-12T12:47:09.471Z,16.21
2019-05-12T12:48:09.492Z,16.17
2019-05-12T12:49:10.511Z,16.24
2019-05-12T12:50:09.498Z,16.21
2019-05-12T12:51:09.529Z,16.25
2019-05-12T12:52:09.540Z,16.29
2019-05-12T12:53:09.529Z,16.32
2019-05-12T12:54:09.558Z,16.26
2019-05-12T12:55:09.553Z,16.25
2019-05-12T12:56:09.581Z,16.24
2019-05-12T12:57:10.161Z,16.25
2019-05-12T12:58:09.558Z,16.18
2019-05-12T12:59:10.509Z,16.22
2019-05-12T13:00:09.580Z,16.26
2019-05-12T13:01:14.187Z,16.18
2019-05-12T13:02:09.602Z,16.17
2019-05-12T13:03:09.656Z,16.18
2019-05-12T13:04:09.652Z,16.25
2019-05-12T13:05:09.619Z,16.25
2019-05-12T13:06:09.670Z,16.25
2019-05-12T13:07:09.637Z,16.26
2019-05-12T13:08:09.636Z,16.29
2019-05-12T13:09:18.493Z,16.28
2019-05-12T13:10:09.908Z,16.28
2019-05-12T13:11:09.685Z,16.26
2019-05-12T13:12:15.835Z,16.31
2019-05-12T13:13:09.691Z,16.25
2019-05-12T13:14:09.696Z,16.31
2019-05-12T13:15:09.805Z,16.32
2019-05-12T13:16:09.821Z,16.40
2019-05-12T13:17:09.717Z,16.44
2019-05-12T13:19:16.588Z,16.44
2019-05-12T13:20:09.746Z,16.46
2019-05-12T13:21:09.759Z,16.49
2019-05-12T13:22:14.955Z,16.54
2019-05-12T13:23:09.817Z,16.39
2019-05-12T13:24:09.761Z,16.46
2019-05-12T13:25:09.825Z,16.46
2019-05-12T13:26:09.796Z,16.34
2019-05-12T13:27:09.807Z,16.39
2019-05-12T13:28:13.301Z,16.43
2019-05-12T13:29:09.828Z,16.40
2019-05-12T13:30:16.344Z,16.46
2019-05-12T13:31:15.303Z,16.37
2019-05-12T13:32:09.828Z,16.43
2019-05-12T13:33:15.050Z,16.37
2019-05-12T13:34:09.882Z,16.43
2019-05-12T13:35:15.426Z,16.50
2019-05-12T13:36:09.855Z,16.47
2019-05-12T13:37:15.546Z,16.55
2019-05-12T13:38:09.904Z,16.44
2019-05-12T13:39:11.354Z,16.46
2019-05-12T13:40:09.906Z,16.57
2019-05-12T13:41:15.128Z,16.41
2019-05-12T13:42:10.334Z,16.44
2019-05-12T13:43:15.585Z,16.37
2019-05-12T13:44:09.920Z,16.41
2019-05-12T13:45:13.171Z,16.50
2019-05-12T13:46:09.982Z,16.49
2019-05-12T13:47:09.971Z,16.47
2019-05-12T13:48:17.331Z,16.49
2019-05-12T13:49:09.966Z,16.64
2019-05-12T13:50:15.896Z,16.61
2019-05-12T13:51:13.284Z,16.50
2019-05-12T13:52:10.007Z,16.50
2019-05-12T13:53:10.437Z,16.64
2019-05-12T13:54:10.033Z,16.66
2019-05-12T13:55:10.004Z,16.72
2019-05-12T13:56:10.025Z,16.58
2019-05-12T13:57:13.310Z,16.54
2019-05-12T13:58:10.081Z,16.50
2019-05-12T13:59:12.091Z,16.54
2019-05-12T14:00:11.062Z,16.50
2019-05-12T14:01:16.985Z,16.44
2019-05-12T14:02:16.242Z,16.58
2019-05-12T14:03:10.098Z,16.49
2019-05-12T14:04:10.202Z,16.54
2019-05-12T14:05:14.098Z,16.58
2019-05-12T14:06:10.132Z,16.62
2019-05-12T14:07:15.732Z,16.61
2019-05-12T14:08:10.117Z,16.68
2019-05-12T14:09:10.134Z,16.69
2019-05-12T14:10:10.189Z,16.68
2019-05-12T14:11:10.139Z,16.79
2019-05-12T14:12:10.156Z,16.68
2019-05-12T14:13:10.216Z,16.68
2019-05-12T14:14:15.269Z,16.73
2019-05-12T14:15:10.308Z,16.69
2019-05-12T14:16:10.198Z,16.65
2019-05-12T14:17:10.271Z,16.74
2019-05-12T14:18:15.100Z,16.69
2019-05-12T14:19:10.299Z,16.69
2019-05-12T14:20:15.796Z,16.69
2019-05-12T14:21:10.270Z,16.77
2019-05-12T14:22:15.160Z,16.82
2019-05-12T14:23:10.264Z,16.80
2019-05-12T14:24:10.318Z,16.74
2019-05-12T14:25:10.261Z,16.68
2019-05-12T14:26:10.265Z,16.66
2019-05-12T14:27:10.301Z,16.80
2019-05-12T14:28:13.465Z,16.83
2019-05-12T14:29:10.315Z,16.77
2019-05-12T14:30:11.676Z,16.83
2019-05-12T14:31:22.757Z,16.86
2019-05-12T14:32:12.074Z,16.87
2019-05-12T14:33:10.347Z,16.65
2019-05-12T14:34:15.794Z,16.68
2019-05-12T14:35:10.339Z,16.73
2019-05-12T14:36:13.653Z,16.73
2019-05-12T14:37:10.640Z,16.73
2019-05-12T14:38:10.393Z,16.62
2019-05-12T14:39:10.559Z,16.72
2019-05-12T14:40:10.419Z,16.73
2019-05-12T14:41:11.710Z,16.84
2019-05-12T14:42:10.397Z,16.69
2019-05-12T14:43:15.792Z,16.73
2019-05-12T14:44:10.417Z,16.68
2019-05-12T14:45:10.440Z,16.76
2019-05-12T14:46:10.647Z,16.66
2019-05-12T14:47:10.428Z,16.69
2019-05-12T14:48:10.446Z,16.66
2019-05-12T14:49:10.455Z,16.73
2019-05-12T14:50:10.486Z,16.69
2019-05-12T14:51:10.492Z,16.66
2019-05-12T14:52:10.478Z,16.73
2019-05-12T14:53:10.483Z,16.79
2019-05-12T14:54:10.491Z,16.76
2019-05-12T14:55:10.531Z,16.74
2019-05-12T14:56:10.500Z,16.61
2019-05-12T14:57:10.534Z,16.72
2019-05-12T14:58:17.709Z,16.69
2019-05-12T14:59:10.537Z,16.72
2019-05-12T15:00:11.395Z,16.62
2019-05-12T15:01:10.563Z,16.61
2019-05-12T15:02:10.563Z,16.72
2019-05-12T15:03:15.578Z,16.66
2019-05-12T15:04:10.589Z,16.66
2019-05-12T15:05:10.994Z,16.62
2019-05-12T15:06:10.624Z,16.65
2019-05-12T15:07:10.590Z,16.49
2019-05-12T15:08:10.609Z,16.44
2019-05-12T15:09:16.720Z,16.49
2019-05-12T15:10:10.636Z,16.51
2019-05-12T15:11:10.644Z,16.46
2019-05-12T15:12:10.639Z,16.40
2019-05-12T15:13:10.639Z,16.50
2019-05-12T15:14:10.651Z,16.49
2019-05-12T15:15:15.631Z,16.40
2019-05-12T15:16:10.699Z,16.40
2019-05-12T15:17:13.725Z,16.49
2019-05-12T15:18:13.162Z,16.46
2019-05-12T15:19:10.694Z,16.44
2019-05-12T15:20:10.910Z,16.47
2019-05-12T15:21:10.722Z,16.43
2019-05-12T15:22:12.432Z,16.50
2019-05-12T15:23:10.718Z,16.43
2019-05-12T15:24:15.237Z,16.39
2019-05-12T15:25:10.755Z,16.37
2019-05-12T15:26:15.732Z,16.39
2019-05-12T15:27:13.291Z,16.40
2019-05-12T15:28:10.764Z,16.36
2019-05-12T15:29:13.521Z,16.34
2019-05-12T15:30:20.212Z,16.37
2019-05-12T15:31:10.800Z,16.40
2019-05-12T15:32:10.872Z,16.28
2019-05-12T15:33:10.812Z,16.36
2019-05-12T15:34:10.815Z,16.37
2019-05-12T15:35:10.847Z,16.29
2019-05-12T15:36:10.887Z,16.24
2019-05-12T15:37:11.006Z,16.26
2019-05-12T15:38:14.714Z,16.31
2019-05-12T15:39:10.878Z,16.26
2019-05-12T15:40:10.853Z,16.24
2019-05-12T15:41:15.718Z,16.25
2019-05-12T15:42:11.020Z,16.34
2019-05-12T15:43:10.905Z,16.24
2019-05-12T15:44:10.882Z,16.31
2019-05-12T15:45:12.763Z,16.22
2019-05-12T15:46:10.913Z,16.24
2019-05-12T15:47:11.181Z,16.28
2019-05-12T15:48:10.956Z,16.25
2019-05-12T15:49:10.927Z,16.21
2019-05-12T15:50:10.949Z,16.22
2019-05-12T15:51:10.984Z,16.16
2019-05-12T15:52:10.952Z,16.18
2019-05-12T15:53:13.726Z,16.12
2019-05-12T15:54:11.788Z,16.12
2019-05-12T15:55:13.439Z,16.10
2019-05-12T15:56:17.626Z,16.21
2019-05-12T15:57:13.405Z,16.10
2019-05-12T15:58:11.050Z,16.13
2019-05-12T15:59:11.050Z,16.06
2019-05-12T16:00:13.885Z,16.08
2019-05-12T16:01:11.016Z,16.13
2019-05-12T16:02:16.259Z,16.16
2019-05-12T16:03:11.027Z,16.12
2019-05-12T16:04:11.983Z,16.12
2019-05-12T16:05:11.052Z,16.09
2019-05-12T16:06:14.636Z,16.13
2019-05-12T16:07:11.086Z,16.16
2019-05-12T16:08:11.080Z,16.03
2019-05-12T16:09:13.132Z,16.17
2019-05-12T16:10:11.101Z,16.05
2019-05-12T16:11:11.112Z,16.10
2019-05-12T16:12:20.057Z,16.10
2019-05-12T16:13:11.109Z,16.02
2019-05-12T16:14:11.113Z,16.06
2019-05-12T16:15:16.478Z,16.06
2019-05-12T16:16:11.166Z,16.08
2019-05-12T16:17:11.141Z,16.10
2019-05-12T16:18:11.142Z,16.08
2019-05-12T16:19:11.158Z,16.02
2019-05-12T16:20:11.174Z,15.96
2019-05-12T16:21:11.199Z,15.98
2019-05-12T16:22:11.209Z,15.96
2019-05-12T16:23:15.506Z,15.88
2019-05-12T16:24:12.551Z,15.87
2019-05-12T16:25:11.211Z,15.92
2019-05-12T16:26:13.089Z,15.94
2019-05-12T16:27:11.243Z,15.90
2019-05-12T16:28:17.125Z,15.87
2019-05-12T16:29:11.257Z,15.85
2019-05-12T16:30:13.602Z,15.76
2019-05-12T16:31:11.270Z,15.85
2019-05-12T16:32:23.806Z,15.90
2019-05-12T16:33:14.394Z,15.80
2019-05-12T16:34:13.715Z,15.90
2019-05-12T16:35:11.276Z,15.84
2019-05-12T16:36:14.274Z,15.81
2019-05-12T16:37:11.296Z,15.80
2019-05-12T16:38:18.005Z,15.83
2019-05-12T16:39:13.355Z,15.75
2019-05-12T16:40:13.437Z,15.76
2019-05-12T16:41:14.047Z,15.81
2019-05-12T16:42:11.393Z,15.69
2019-05-12T16:43:11.350Z,15.75
2019-05-12T16:44:20.823Z,15.75
2019-05-12T16:45:11.383Z,15.73
2019-05-12T16:46:11.400Z,15.80
2019-05-12T23:39:14.301Z,10.84
2019-05-12T23:40:16.565Z,10.95
2019-05-12T23:41:13.576Z,10.83
2019-05-12T23:42:13.620Z,10.82
2019-05-12T23:43:14.517Z,10.84
2019-05-12T23:44:13.545Z,10.86
2019-05-12T23:45:13.972Z,10.87
2019-05-12T23:46:12.927Z,10.77
2019-05-12T23:47:12.976Z,10.84
2019-05-12T23:48:14.264Z,10.84
2019-05-12T23:49:14.404Z,10.83
2019-05-12T23:50:14.147Z,10.82
2019-05-12T23:51:14.306Z,10.72
2019-05-12T23:52:14.071Z,10.75
2019-05-12T23:53:13.962Z,10.71
2019-05-12T23:54:14.382Z,10.71
2019-05-12T23:55:13.805Z,10.65
2019-05-12T23:56:12.973Z,10.76
2019-05-12T23:57:15.513Z,10.68
2019-05-12T23:58:14.409Z,10.67
2019-05-12T23:59:13.522Z,10.62
